Time;durP1;ratioP1;P1;durP2;ratioP2;P2;SDS_P1;SDS_P2;PMS_P1;PMS_P2;Temp;Humidity;BMP_temperature;BMP_pressure;BME280_temperature;BME280_humidity;BME280_pressure;Samples;Min_cycle;Max_cycle;Signal;HPM_P1;HPM_P2
2021/03/30 00:00:40;;;;;;;52.97;23.80;;;;;;;;;;4989662;28;20122;-78
2021/03/30 00:03:06;;;;;;;56.35;22.33;;;;;;;;;;4971061;28;20144;-78
2021/03/30 00:05:33;;;;;;;58.05;24.48;;;;;;;;;;4967861;28;20143;-77
2021/03/30 00:08:00;;;;;;;55.88;23.48;;;;;;;;;;4953303;28;20046;-78
2021/03/30 00:10:31;;;;;;;58.25;24.13;;;;;;;;;;4970631;28;20074;-77
2021/03/30 00:12:57;;;;;;;55.05;22.67;;;;;;;;;;4970748;28;20113;-78
2021/03/30 00:15:24;;;;;;;52.58;22.98;;;;;;;;;;4970562;28;20058;-77
2021/03/30 00:17:51;;;;;;;51.05;23.20;;;;;;;;;;4970539;28;20148;-78
2021/03/30 00:20:17;;;;;;;58.70;22.60;;;;;;;;;;4971032;28;20074;-78
2021/03/30 00:22:44;;;;;;;54.75;22.83;;;;;;;;;;4971102;28;20055;-77
2021/03/30 00:25:11;;;;;;;56.60;21.05;;;;;;;;;;4970099;28;20078;-78
2021/03/30 00:27:38;;;;;;;50.90;21.73;;;;;;;;;;4953454;28;20074;-77
2021/03/30 00:30:06;;;;;;;57.90;22.35;;;;;;;;;;4953242;28;20126;-78
2021/03/30 00:32:33;;;;;;;61.85;19.77;;;;;;;;;;4970132;28;20054;-78
2021/03/30 00:35:00;;;;;;;55.13;22.13;;;;;;;;;;4952495;28;20047;-77
2021/03/30 00:37:26;;;;;;;56.35;22.10;;;;;;;;;;4970771;28;20094;-77
2021/03/30 00:39:53;;;;;;;58.15;21.95;;;;;;;;;;4969874;28;20094;-77
2021/03/30 00:42:26;;;;;;;62.58;22.33;;;;;;;;;;4969455;28;20082;-76
2021/03/30 00:44:53;;;;;;;54.33;21.33;;;;;;;;;;4944895;28;20113;-77
2021/03/30 00:47:21;;;;;;;54.97;22.70;;;;;;;;;;4970045;28;20057;-77
2021/03/30 00:49:51;;;;;;;59.95;23.20;;;;;;;;;;4952588;28;20093;-77
2021/03/30 00:52:19;;;;;;;60.70;23.35;;;;;;;;;;4952434;28;20137;-77
2021/03/30 00:54:47;;;;;;;62.05;23.75;;;;;;;;;;4952855;28;20055;-76
2021/03/30 00:57:15;;;;;;;71.43;24.85;;;;;;;;;;4970460;28;20086;-76
2021/03/30 00:59:44;;;;;;;64.55;23.75;;;;;;;;;;4953258;28;20144;-77
2021/03/30 01:02:11;;;;;;;65.60;24.00;;;;;;;;;;4950136;28;20055;-77
2021/03/30 01:04:38;;;;;;;54.83;23.52;;;;;;;;;;4978417;28;20101;-76
2021/03/30 01:07:05;;;;;;;67.20;23.95;;;;;;;;;;4988541;28;20501;-76
2021/03/30 01:09:39;;;;;;;67.78;24.33;;;;;;;;;;4978836;28;20509;-77
2021/03/30 01:12:08;;;;;;;56.58;23.05;;;;;;;;;;4963665;28;20528;-77
2021/03/30 01:14:56;;;;;;;58.35;23.67;;;;;;;;;;4971062;28;20470;-77
2021/03/30 01:17:26;;;;;;;69.80;25.60;;;;;;;;;;4989250;28;20046;-76
2021/03/30 01:20:19;;;;;;;61.42;24.42;;;;;;;;;;4988720;28;20077;-77
2021/03/30 01:23:04;;;;;;;67.70;24.65;;;;;;;;;;4950260;28;20051;-77
2021/03/30 01:25:31;;;;;;;65.43;25.48;;;;;;;;;;4980963;28;20081;-76
2021/03/30 01:28:18;;;;;;;78.47;25.30;;;;;;;;;;4988627;28;20046;-77
2021/03/30 01:30:46;;;;;;;76.97;25.38;;;;;;;;;;4957323;28;20054;-77
2021/03/30 01:33:14;;;;;;;77.68;25.60;;;;;;;;;;4969745;28;20081;-77
2021/03/30 01:35:41;;;;;;;72.53;27.42;;;;;;;;;;4988223;28;20078;-76
2021/03/30 01:38:08;;;;;;;75.68;26.05;;;;;;;;;;4988221;28;20109;-76
2021/03/30 01:40:35;;;;;;;76.50;26.95;;;;;;;;;;4971046;28;20523;-76
2021/03/30 01:43:03;;;;;;;64.45;25.60;;;;;;;;;;4976538;28;20443;-76
2021/03/30 01:45:30;;;;;;;82.47;26.77;;;;;;;;;;4985788;28;20101;-76
2021/03/30 01:47:57;;;;;;;77.18;26.92;;;;;;;;;;4970204;28;20051;-76
2021/03/30 01:50:26;;;;;;;79.43;25.92;;;;;;;;;;4988552;28;20082;-76
2021/03/30 01:52:53;;;;;;;64.07;24.90;;;;;;;;;;4986560;28;20050;-76
2021/03/30 01:55:21;;;;;;;68.65;26.67;;;;;;;;;;4988067;28;20061;-76
2021/03/30 01:57:52;;;;;;;75.20;27.60;;;;;;;;;;4970256;28;20084;-76
2021/03/30 02:00:20;;;;;;;69.15;26.17;;;;;;;;;;4969311;28;20050;-77
2021/03/30 02:02:47;;;;;;;70.88;25.95;;;;;;;;;;4987076;28;20125;-76
2021/03/30 02:05:14;;;;;;;82.93;27.20;;;;;;;;;;4978112;28;20134;-77
2021/03/30 02:07:42;;;;;;;67.25;26.00;;;;;;;;;;4971649;28;20439;-77
2021/03/30 02:10:17;;;;;;;77.00;27.23;;;;;;;;;;4978327;28;20448;-77
2021/03/30 02:12:45;;;;;;;69.95;26.67;;;;;;;;;;4963675;28;20575;-77
2021/03/30 02:15:16;;;;;;;70.18;26.50;;;;;;;;;;4970277;28;20112;-76
2021/03/30 02:17:48;;;;;;;72.25;25.50;;;;;;;;;;4977244;28;20110;-76
2021/03/30 02:20:17;;;;;;;77.70;25.70;;;;;;;;;;4987229;28;20439;-76
2021/03/30 02:22:54;;;;;;;73.55;26.80;;;;;;;;;;4970073;28;20139;-76
2021/03/30 02:25:23;;;;;;;77.60;26.48;;;;;;;;;;4970033;28;20121;-77
2021/03/30 02:27:51;;;;;;;78.82;27.67;;;;;;;;;;4990891;28;20054;-77
2021/03/30 02:30:19;;;;;;;83.30;29.60;;;;;;;;;;4991473;28;20050;-76
2021/03/30 02:32:47;;;;;;;79.32;27.52;;;;;;;;;;4973480;28;20089;-76
2021/03/30 02:35:14;;;;;;;70.65;27.33;;;;;;;;;;4991803;28;20086;-77
2021/03/30 02:37:42;;;;;;;85.45;29.05;;;;;;;;;;4991525;28;20058;-76
2021/03/30 02:40:10;;;;;;;78.15;26.83;;;;;;;;;;4973521;28;20599;-76
2021/03/30 02:42:37;;;;;;;81.95;27.67;;;;;;;;;;4988352;28;20079;-76
2021/03/30 02:45:05;;;;;;;80.13;28.73;;;;;;;;;;4968111;28;20050;-76
2021/03/30 02:47:32;;;;;;;82.13;27.75;;;;;;;;;;4973629;28;20054;-76
2021/03/30 02:50:01;;;;;;;76.60;29.70;;;;;;;;;;4984657;28;20105;-76
2021/03/30 02:52:29;;;;;;;89.03;29.05;;;;;;;;;;4990759;28;20828;-76
2021/03/30 02:54:56;;;;;;;80.97;29.63;;;;;;;;;;4974167;28;20518;-76
2021/03/30 02:57:23;;;;;;;82.95;29.83;;;;;;;;;;4990207;28;20456;-76
2021/03/30 02:59:53;;;;;;;93.25;30.92;;;;;;;;;;4990145;28;20490;-76
2021/03/30 03:02:20;;;;;;;97.45;29.75;;;;;;;;;;4989942;28;20076;-76
2021/03/30 03:04:48;;;;;;;89.20;32.53;;;;;;;;;;4989966;28;20469;-76
2021/03/30 03:07:16;;;;;;;85.88;28.58;;;;;;;;;;4989481;28;20110;-77
2021/03/30 03:09:43;;;;;;;85.68;29.63;;;;;;;;;;4971424;28;20129;-76
2021/03/30 03:12:10;;;;;;;85.60;28.30;;;;;;;;;;4990107;28;20050;-77
2021/03/30 03:14:39;;;;;;;91.53;31.08;;;;;;;;;;4984727;28;20468;-77
2021/03/30 03:17:07;;;;;;;103.90;31.33;;;;;;;;;;4983090;28;20116;-77
2021/03/30 03:19:34;;;;;;;85.38;28.67;;;;;;;;;;4990470;28;20142;-76
2021/03/30 03:22:02;;;;;;;82.57;28.75;;;;;;;;;;4990154;28;20061;-76
2021/03/30 03:24:29;;;;;;;85.28;29.08;;;;;;;;;;4964898;28;20129;-76
2021/03/30 03:26:56;;;;;;;72.80;27.95;;;;;;;;;;4990775;28;20046;-76
2021/03/30 03:29:23;;;;;;;94.57;28.25;;;;;;;;;;4991030;28;20503;-76
2021/03/30 03:31:50;;;;;;;78.47;29.10;;;;;;;;;;4990232;28;20060;-76
2021/03/30 03:34:20;;;;;;;84.72;28.27;;;;;;;;;;4989666;28;20050;-76
2021/03/30 03:36:48;;;;;;;82.30;29.25;;;;;;;;;;4990319;28;20399;-76
2021/03/30 03:39:16;;;;;;;91.65;32.00;;;;;;;;;;4990284;28;20092;-76
2021/03/30 03:41:43;;;;;;;81.22;26.95;;;;;;;;;;4989713;28;20042;-76
2021/03/30 03:44:11;;;;;;;95.40;31.08;;;;;;;;;;4972812;28;20074;-77
2021/03/30 03:46:38;;;;;;;82.75;28.42;;;;;;;;;;4990167;28;20818;-76
2021/03/30 03:49:05;;;;;;;78.60;29.65;;;;;;;;;;4973145;28;20651;-77
2021/03/30 03:51:46;;;;;;;71.68;26.90;;;;;;;;;;4990186;28;20050;-76
2021/03/30 03:54:16;;;;;;;82.95;28.45;;;;;;;;;;4972939;28;20058;-76
2021/03/30 03:56:44;;;;;;;79.65;28.10;;;;;;;;;;4990396;28;20142;-76
2021/03/30 03:59:19;;;;;;;80.82;27.75;;;;;;;;;;4972459;28;20056;-76
2021/03/30 04:01:50;;;;;;;91.50;30.07;;;;;;;;;;4971524;28;20086;-76
2021/03/30 04:04:23;;;;;;;78.07;28.45;;;;;;;;;;4971673;28;20101;-76
2021/03/30 04:06:58;;;;;;;86.93;28.98;;;;;;;;;;4971922;28;20048;-76
2021/03/30 04:09:26;;;;;;;92.60;31.17;;;;;;;;;;4971826;28;20512;-76
2021/03/30 04:11:53;;;;;;;103.60;30.58;;;;;;;;;;4987434;28;20112;-77
2021/03/30 04:14:20;;;;;;;98.50;30.48;;;;;;;;;;4989894;28;20534;-77
2021/03/30 04:16:48;;;;;;;94.30;31.10;;;;;;;;;;4972208;28;20086;-77
2021/03/30 04:19:15;;;;;;;98.25;31.15;;;;;;;;;;4989528;28;20058;-77
2021/03/30 04:21:42;;;;;;;111.05;35.08;;;;;;;;;;4971269;28;20149;-77
2021/03/30 04:24:09;;;;;;;97.03;35.00;;;;;;;;;;4978519;28;20055;-76
2021/03/30 04:26:37;;;;;;;95.47;31.75;;;;;;;;;;4970876;28;20121;-76
2021/03/30 04:29:04;;;;;;;115.50;34.90;;;;;;;;;;4987607;28;20169;-76
2021/03/30 04:31:30;;;;;;;95.40;33.55;;;;;;;;;;4972423;28;20086;-76
2021/03/30 04:33:57;;;;;;;99.00;32.45;;;;;;;;;;4989567;28;20054;-77
2021/03/30 04:36:24;;;;;;;86.18;32.22;;;;;;;;;;4989100;28;20836;-76
2021/03/30 04:38:51;;;;;;;86.45;33.65;;;;;;;;;;4989252;28;20530;-77
2021/03/30 04:41:18;;;;;;;103.85;34.58;;;;;;;;;;4972657;28;20566;-77
2021/03/30 04:43:45;;;;;;;94.13;34.60;;;;;;;;;;4969807;28;20120;-77
2021/03/30 04:46:12;;;;;;;92.78;33.83;;;;;;;;;;4987567;28;20082;-77
2021/03/30 04:48:39;;;;;;;88.13;32.00;;;;;;;;;;4971174;28;20056;-76
2021/03/30 04:51:06;;;;;;;97.30;32.35;;;;;;;;;;4971337;28;20532;-76
2021/03/30 04:53:33;;;;;;;108.65;33.15;;;;;;;;;;4990244;28;20042;-77
2021/03/30 04:56:00;;;;;;;102.82;35.47;;;;;;;;;;4989431;28;20077;-77
2021/03/30 04:58:27;;;;;;;105.65;33.60;;;;;;;;;;4990477;28;20054;-77
2021/03/30 05:00:54;;;;;;;101.97;33.40;;;;;;;;;;4970529;28;20129;-80
2021/03/30 05:03:21;;;;;;;85.65;30.88;;;;;;;;;;4974263;28;20113;-78
2021/03/30 05:05:50;;;;;;;92.47;32.95;;;;;;;;;;4990102;28;20058;-77
2021/03/30 05:08:17;;;;;;;89.68;32.85;;;;;;;;;;4991392;28;20137;-77
2021/03/30 05:10:44;;;;;;;86.85;31.95;;;;;;;;;;4991890;28;20054;-78
2021/03/30 05:13:11;;;;;;;87.93;32.42;;;;;;;;;;4973565;28;20074;-78
2021/03/30 05:15:37;;;;;;;88.28;31.95;;;;;;;;;;4973750;28;20054;-76
2021/03/30 05:18:04;;;;;;;94.10;31.00;;;;;;;;;;4973794;28;20054;-78
2021/03/30 05:20:31;;;;;;;81.97;30.98;;;;;;;;;;4991706;28;20050;-78
2021/03/30 05:22:58;;;;;;;77.72;29.60;;;;;;;;;;4973692;28;20051;-77
2021/03/30 05:25:24;;;;;;;75.97;28.77;;;;;;;;;;4972769;28;20137;-77
2021/03/30 05:27:51;;;;;;;91.78;29.52;;;;;;;;;;4971809;28;20128;-77
2021/03/30 05:30:18;;;;;;;79.45;29.50;;;;;;;;;;4989036;28;20078;-78
2021/03/30 05:32:45;;;;;;;90.95;30.45;;;;;;;;;;4987916;28;20058;-77
2021/03/30 05:35:12;;;;;;;83.10;29.20;;;;;;;;;;4961017;28;20484;-78
2021/03/30 05:37:42;;;;;;;73.82;27.95;;;;;;;;;;4958169;28;20050;-78
2021/03/30 05:40:17;;;;;;;83.50;28.80;;;;;;;;;;4984362;28;20108;-75
2021/03/30 05:42:45;;;;;;;68.40;28.33;;;;;;;;;;4972605;28;20097;-77
2021/03/30 05:45:13;;;;;;;78.22;28.90;;;;;;;;;;4990362;28;20763;-78
2021/03/30 05:47:40;;;;;;;82.13;29.23;;;;;;;;;;4973346;28;20082;-78
2021/03/30 05:50:12;;;;;;;80.80;30.27;;;;;;;;;;4990101;28;20054;-78
2021/03/30 05:53:05;;;;;;;74.63;30.25;;;;;;;;;;4967579;28;20739;-78
2021/03/30 05:55:35;;;;;;;78.95;31.60;;;;;;;;;;4954593;28;20059;-78
2021/03/30 05:58:02;;;;;;;79.30;29.10;;;;;;;;;;4953961;28;20082;-78
2021/03/30 06:00:30;;;;;;;69.57;27.85;;;;;;;;;;4972617;28;20598;-78
2021/03/30 06:02:59;;;;;;;68.43;26.52;;;;;;;;;;4991731;28;20113;-78
2021/03/30 06:05:37;;;;;;;71.43;27.42;;;;;;;;;;4990725;28;20503;-78
2021/03/30 06:08:05;;;;;;;70.72;27.75;;;;;;;;;;4974102;28;20082;-78
2021/03/30 06:10:33;;;;;;;75.35;28.92;;;;;;;;;;4974039;28;20101;-78
2021/03/30 06:13:00;;;;;;;75.57;28.60;;;;;;;;;;4971134;28;20051;-78
2021/03/30 06:15:29;;;;;;;83.88;25.73;;;;;;;;;;4972506;28;20483;-78
2021/03/30 06:17:58;;;;;;;79.00;27.75;;;;;;;;;;4970956;28;20061;-77
2021/03/30 06:20:29;;;;;;;64.88;24.98;;;;;;;;;;4971214;28;20097;-78
2021/03/30 06:23:00;;;;;;;60.33;25.08;;;;;;;;;;4988839;28;20046;-78
2021/03/30 06:25:41;;;;;;;61.65;22.98;;;;;;;;;;4974131;28;20054;-78
2021/03/30 06:28:10;;;;;;;62.72;23.98;;;;;;;;;;4972884;28;20050;-78
2021/03/30 06:30:38;;;;;;;50.92;24.00;;;;;;;;;;4991274;28;20046;-78
2021/03/30 06:33:06;;;;;;;50.28;21.17;;;;;;;;;;4968469;28;20066;-78
2021/03/30 06:35:33;;;;;;;49.60;20.60;;;;;;;;;;4970962;28;20059;-78
2021/03/30 06:37:59;;;;;;;38.78;17.35;;;;;;;;;;4972587;28;20506;-79
2021/03/30 06:40:33;;;;;;;38.60;16.70;;;;;;;;;;4974510;28;20108;-79
2021/03/30 06:44:24;;;;;;;39.45;16.95;;;;;;;;;;4972886;28;20511;-78
2021/03/30 06:46:03;;;;;;;37.38;16.45;;;;;;;;;;4988882;28;20050;-79
2021/03/30 06:48:30;;;;;;;34.08;15.85;;;;;;;;;;4972409;28;20051;-79
2021/03/30 06:51:00;;;;;;;36.40;15.52;;;;;;;;;;4972352;28;20058;-79
2021/03/30 06:53:32;;;;;;;37.70;15.05;;;;;;;;;;4972252;28;20050;-79
2021/03/30 06:55:59;;;;;;;30.92;14.45;;;;;;;;;;4970775;28;20086;-79
2021/03/30 06:58:26;;;;;;;33.03;13.38;;;;;;;;;;4963953;28;20130;-79
2021/03/30 07:00:53;;;;;;;35.70;14.05;;;;;;;;;;4953560;28;20065;-78
2021/03/30 07:03:20;;;;;;;27.27;13.13;;;;;;;;;;4950330;28;20070;-79
2021/03/30 07:05:49;;;;;;;29.15;11.85;;;;;;;;;;4969023;28;20153;-79
2021/03/30 07:08:17;;;;;;;24.20;12.63;;;;;;;;;;4984784;28;20046;-79
2021/03/30 07:10:45;;;;;;;29.88;13.00;;;;;;;;;;4970591;28;20050;-80
2021/03/30 07:13:12;;;;;;;24.70;10.88;;;;;;;;;;4989938;28;20050;-79
2021/03/30 07:15:40;;;;;;;25.60;11.63;;;;;;;;;;4973061;28;20054;-79
2021/03/30 07:18:19;;;;;;;27.35;11.68;;;;;;;;;;4990660;28;20140;-79
2021/03/30 07:20:53;;;;;;;27.65;12.07;;;;;;;;;;4971473;28;20051;-79
2021/03/30 07:23:25;;;;;;;25.70;12.10;;;;;;;;;;4970333;28;20058;-79
2021/03/30 07:25:59;;;;;;;29.42;11.10;;;;;;;;;;4971745;28;20058;-79
2021/03/30 07:28:28;;;;;;;32.38;11.02;;;;;;;;;;4970953;28;20051;-80
2021/03/30 07:30:56;;;;;;;25.75;10.48;;;;;;;;;;4971980;28;20082;-80
2021/03/30 07:33:43;;;;;;;22.08;10.93;;;;;;;;;;4971566;28;20416;-79
2021/03/30 07:36:11;;;;;;;27.25;10.75;;;;;;;;;;4954638;28;20059;-79
2021/03/30 07:38:45;;;;;;;26.13;10.13;;;;;;;;;;4979651;28;20078;-80
2021/03/30 07:41:12;;;;;;;23.42;10.30;;;;;;;;;;4974375;28;20080;-80
2021/03/30 07:43:39;;;;;;;22.67;10.02;;;;;;;;;;4972981;28;20046;-80
2021/03/30 07:46:07;;;;;;;27.48;9.85;;;;;;;;;;4973026;28;20141;-80
2021/03/30 07:48:34;;;;;;;24.73;9.80;;;;;;;;;;4961938;28;20138;-80
2021/03/30 07:51:09;;;;;;;20.17;9.30;;;;;;;;;;4971531;28;20106;-80
2021/03/30 07:53:44;;;;;;;22.48;9.38;;;;;;;;;;4970845;28;20066;-80
2021/03/30 07:56:12;;;;;;;18.60;8.57;;;;;;;;;;4967857;28;20138;-79
2021/03/30 07:58:40;;;;;;;30.90;8.98;;;;;;;;;;4970979;28;20744;-80
2021/03/30 08:01:08;;;;;;;19.55;9.10;;;;;;;;;;4969859;28;20093;-80
2021/03/30 08:03:36;;;;;;;17.75;8.95;;;;;;;;;;4951461;28;558434;-81
2021/03/30 08:06:17;;;;;;;22.73;8.90;;;;;;;;;;4971000;28;20113;-80
2021/03/30 08:09:00;;;;;;;27.33;9.35;;;;;;;;;;4982519;28;20456;-80
2021/03/30 08:11:39;;;;;;;18.13;8.98;;;;;;;;;;4973707;28;20510;-80
2021/03/30 08:14:06;;;;;;;18.58;8.60;;;;;;;;;;4973655;28;20082;-80
2021/03/30 08:16:35;;;;;;;21.33;8.77;;;;;;;;;;4991262;28;20137;-80
2021/03/30 08:19:05;;;;;;;17.38;8.57;;;;;;;;;;4980357;28;20082;-80
2021/03/30 08:21:50;;;;;;;20.75;8.88;;;;;;;;;;4970420;28;20082;-80
2021/03/30 08:24:18;;;;;;;20.52;9.05;;;;;;;;;;4970431;28;20138;-79
2021/03/30 08:26:46;;;;;;;19.10;8.38;;;;;;;;;;4971701;28;20050;-79
2021/03/30 08:29:15;;;;;;;20.33;8.52;;;;;;;;;;4973358;28;20050;-80
2021/03/30 08:31:46;;;;;;;29.70;9.90;;;;;;;;;;4990707;28;20054;-80
2021/03/30 08:34:14;;;;;;;21.45;8.80;;;;;;;;;;4973314;28;20062;-80
2021/03/30 08:36:44;;;;;;;23.50;9.10;;;;;;;;;;4990793;28;20499;-80
2021/03/30 08:39:20;;;;;;;23.17;9.27;;;;;;;;;;4972482;28;20112;-80
2021/03/30 08:41:47;;;;;;;20.48;9.43;;;;;;;;;;4990641;28;20078;-80
2021/03/30 08:44:23;;;;;;;21.80;10.20;;;;;;;;;;4973317;28;20050;-80
2021/03/30 08:46:56;;;;;;;25.27;10.40;;;;;;;;;;4972467;28;20089;-80
2021/03/30 08:49:28;;;;;;;21.80;10.25;;;;;;;;;;4991188;28;20054;-80
2021/03/30 08:52:03;;;;;;;20.45;9.85;;;;;;;;;;4973130;28;20096;-80
2021/03/30 08:54:31;;;;;;;33.65;9.65;;;;;;;;;;4972390;28;20065;-80
2021/03/30 08:56:59;;;;;;;19.00;9.25;;;;;;;;;;4987090;28;20101;-80
2021/03/30 08:59:27;;;;;;;18.45;9.10;;;;;;;;;;4977417;28;20077;-80
2021/03/30 09:01:58;;;;;;;15.55;9.63;;;;;;;;;;4976134;28;20059;-80
2021/03/30 09:04:25;;;;;;;19.13;8.68;;;;;;;;;;4970235;28;20495;-81
2021/03/30 09:06:55;;;;;;;19.15;9.75;;;;;;;;;;4972236;28;20097;-80
2021/03/30 09:09:23;;;;;;;17.95;8.73;;;;;;;;;;4989394;28;20550;-80
2021/03/30 09:11:50;;;;;;;19.55;9.63;;;;;;;;;;4972366;28;20490;-80
2021/03/30 09:14:18;;;;;;;20.08;9.80;;;;;;;;;;4972319;28;20050;-80
2021/03/30 09:16:49;;;;;;;22.95;9.60;;;;;;;;;;4972417;28;20089;-81
2021/03/30 09:19:17;;;;;;;20.45;8.95;;;;;;;;;;4983737;28;20097;-80
2021/03/30 09:21:46;;;;;;;20.17;8.88;;;;;;;;;;4972022;28;20098;-78
2021/03/30 09:24:25;;;;;;;20.13;10.15;;;;;;;;;;4989463;28;20213;-78
2021/03/30 09:26:52;;;;;;;18.90;8.70;;;;;;;;;;4972281;28;20050;-78
2021/03/30 09:29:20;;;;;;;21.05;8.82;;;;;;;;;;4989554;28;20053;-77
2021/03/30 09:31:47;;;;;;;19.23;9.13;;;;;;;;;;4987960;28;20447;-78
2021/03/30 09:34:14;;;;;;;26.30;8.90;;;;;;;;;;4969917;28;20046;-78
2021/03/30 09:36:42;;;;;;;17.83;9.40;;;;;;;;;;4968164;28;20073;-78
2021/03/30 09:39:09;;;;;;;23.45;10.02;;;;;;;;;;4971910;28;20054;-78
2021/03/30 09:41:40;;;;;;;20.80;10.30;;;;;;;;;;4988552;28;20054;-78
2021/03/30 09:44:07;;;;;;;16.83;9.13;;;;;;;;;;4988771;28;20551;-78
2021/03/30 09:46:42;;;;;;;20.10;10.00;;;;;;;;;;4972540;28;20149;-78
2021/03/30 09:49:10;;;;;;;15.20;9.05;;;;;;;;;;4988740;28;20057;-78
2021/03/30 09:51:38;;;;;;;20.95;11.18;;;;;;;;;;4971750;28;20069;-78
2021/03/30 09:54:23;;;;;;;21.38;10.65;;;;;;;;;;4988789;28;20475;-78
2021/03/30 09:57:01;;;;;;;20.05;9.38;;;;;;;;;;4951962;28;20066;-78
2021/03/30 09:59:28;;;;;;;19.17;9.95;;;;;;;;;;4951811;28;20074;-78
2021/03/30 10:01:55;;;;;;;15.52;9.23;;;;;;;;;;4951387;28;20145;-78
2021/03/30 10:04:24;;;;;;;18.38;10.05;;;;;;;;;;4968973;28;20589;-79
2021/03/30 10:06:51;;;;;;;22.17;9.05;;;;;;;;;;4988111;28;20046;-78
2021/03/30 10:09:18;;;;;;;18.85;9.13;;;;;;;;;;4970377;28;20144;-79
2021/03/30 10:11:47;;;;;;;14.43;9.90;;;;;;;;;;4988232;28;20086;-78
2021/03/30 10:14:25;;;;;;;18.80;9.80;;;;;;;;;;4970979;28;20070;-78
2021/03/30 10:16:58;;;;;;;18.30;10.50;;;;;;;;;;4988464;28;20116;-78
2021/03/30 10:19:26;;;;;;;15.68;9.40;;;;;;;;;;4970863;28;20101;-78
2021/03/30 10:21:55;;;;;;;19.58;10.27;;;;;;;;;;4988349;28;20078;-79
2021/03/30 10:24:23;;;;;;;15.35;9.88;;;;;;;;;;4971296;28;20626;-78
2021/03/30 10:27:03;;;;;;;18.88;10.45;;;;;;;;;;4971889;28;20081;-78
2021/03/30 10:29:36;;;;;;;15.57;9.45;;;;;;;;;;4959587;28;20126;-78
2021/03/30 10:32:07;;;;;;;15.32;9.73;;;;;;;;;;4971650;28;20058;-78
2021/03/30 10:34:35;;;;;;;22.27;10.43;;;;;;;;;;4970616;28;20055;-79
2021/03/30 10:37:07;;;;;;;17.88;9.48;;;;;;;;;;4970016;28;20089;-79
2021/03/30 10:39:36;;;;;;;20.20;9.93;;;;;;;;;;4989937;28;20095;-79
2021/03/30 10:42:08;;;;;;;17.60;9.93;;;;;;;;;;4971426;28;20101;-79
2021/03/30 10:44:44;;;;;;;16.48;8.85;;;;;;;;;;4974421;28;20661;-79
2021/03/30 10:47:12;;;;;;;18.55;9.05;;;;;;;;;;4972637;28;20046;-79
2021/03/30 10:49:39;;;;;;;17.02;9.32;;;;;;;;;;4974964;28;20074;-78
2021/03/30 10:52:09;;;;;;;13.00;8.85;;;;;;;;;;4992798;28;20109;-79
2021/03/30 10:54:38;;;;;;;18.02;9.45;;;;;;;;;;4993785;28;20061;-79
2021/03/30 10:57:13;;;;;;;13.95;8.48;;;;;;;;;;4982185;28;20141;-79
2021/03/30 10:59:39;;;;;;;;;;;;;;;;;;4975539;28;20058;-79
2021/03/30 11:02:06;;;;;;;19.00;9.05;;;;;;;;;;4973948;28;19973;-79
2021/03/30 11:04:33;;;;;;;15.55;8.27;;;;;;;;;;4973455;28;20047;-79
2021/03/30 11:07:00;;;;;;;17.73;8.63;;;;;;;;;;4971969;28;20666;-79
2021/03/30 11:09:27;;;;;;;14.93;7.75;;;;;;;;;;4987309;28;20055;-79
2021/03/30 11:11:55;;;;;;;16.17;7.07;;;;;;;;;;4961713;28;20142;-79
2021/03/30 11:14:22;;;;;;;13.60;6.85;;;;;;;;;;4956297;28;20050;-78
2021/03/30 11:16:49;;;;;;;11.40;6.55;;;;;;;;;;4967468;28;20054;-79
2021/03/30 11:19:17;;;;;;;13.10;8.52;;;;;;;;;;4992908;28;20042;-78
2021/03/30 11:21:44;;;;;;;15.32;7.15;;;;;;;;;;4975208;28;20124;-78
2021/03/30 11:24:18;;;;;;;10.90;6.63;;;;;;;;;;4991817;28;20146;-79
2021/03/30 11:26:48;;;;;;;12.48;6.63;;;;;;;;;;4992729;28;20472;-79
2021/03/30 11:29:24;;;;;;;12.63;7.00;;;;;;;;;;4992113;28;20164;-79
2021/03/30 11:34:55;;;;;;;12.88;7.18;;;;;;;;;;4975621;28;20142;-80
2021/03/30 11:39:55;;;;;;;24.63;7.15;;;;;;;;;;4993708;28;20120;-79
2021/03/30 11:42:21;;;;;;;13.98;6.53;;;;;;;;;;4974899;28;20046;-79
2021/03/30 11:44:48;;;;;;;17.02;6.97;;;;;;;;;;4991237;28;20066;-79
2021/03/30 11:47:15;;;;;;;15.55;6.93;;;;;;;;;;4975013;28;20527;-80
2021/03/30 11:49:42;;;;;;;11.95;6.38;;;;;;;;;;4992057;28;20046;-79
2021/03/30 11:52:09;;;;;;;12.98;7.28;;;;;;;;;;4991858;28;20051;-80
2021/03/30 11:54:35;;;;;;;14.90;7.60;;;;;;;;;;4970701;28;20447;-80
2021/03/30 11:57:03;;;;;;;20.65;7.30;;;;;;;;;;4972586;28;20046;-79
2021/03/30 11:59:30;;;;;;;13.02;7.10;;;;;;;;;;4972090;28;20109;-80
2021/03/30 12:01:56;;;;;;;10.57;6.43;;;;;;;;;;4971410;28;20663;-79
2021/03/30 12:04:23;;;;;;;9.82;6.22;;;;;;;;;;4972757;28;20055;-80
2021/03/30 12:06:52;;;;;;;12.02;6.50;;;;;;;;;;4972827;28;20137;-80
2021/03/30 12:09:19;;;;;;;13.65;6.82;;;;;;;;;;4985592;28;20105;-80
2021/03/30 12:11:46;;;;;;;11.35;6.65;;;;;;;;;;4970886;28;20085;-80
2021/03/30 12:14:14;;;;;;;27.60;7.15;;;;;;;;;;4972511;28;20073;-80
2021/03/30 12:16:43;;;;;;;11.90;6.40;;;;;;;;;;4957322;28;20086;-80
2021/03/30 12:19:10;;;;;;;14.38;6.40;;;;;;;;;;4981809;28;20113;-80
2021/03/30 12:21:37;;;;;;;11.15;5.70;;;;;;;;;;4972689;28;20098;-79
2021/03/30 12:24:04;;;;;;;9.50;4.93;;;;;;;;;;4970723;28;20448;-80
2021/03/30 12:26:30;;;;;;;10.00;4.95;;;;;;;;;;4970978;28;20078;-79
2021/03/30 12:29:00;;;;;;;10.18;4.38;;;;;;;;;;4974736;28;20070;-79
2021/03/30 12:31:27;;;;;;;7.97;4.40;;;;;;;;;;4971631;28;20062;-79
2021/03/30 12:33:53;;;;;;;6.90;3.85;;;;;;;;;;4971223;28;20058;-80
2021/03/30 12:36:20;;;;;;;8.30;4.63;;;;;;;;;;4970306;28;20058;-80
2021/03/30 12:38:47;;;;;;;11.27;4.30;;;;;;;;;;4981452;28;20055;-79
2021/03/30 12:41:14;;;;;;;9.93;4.53;;;;;;;;;;4973701;28;20066;-79
2021/03/30 12:43:41;;;;;;;6.03;4.72;;;;;;;;;;4974227;28;20073;-80
2021/03/30 12:46:09;;;;;;;6.03;3.70;;;;;;;;;;4990491;28;20143;-79
2021/03/30 12:48:35;;;;;;;10.82;3.70;;;;;;;;;;4974279;28;20529;-79
2021/03/30 12:51:02;;;;;;;5.97;3.95;;;;;;;;;;4991379;28;20050;-79
2021/03/30 12:53:29;;;;;;;10.00;5.75;;;;;;;;;;4974055;28;20785;-79
2021/03/30 12:55:55;;;;;;;15.32;5.57;;;;;;;;;;4991230;28;20077;-79
2021/03/30 12:58:22;;;;;;;9.70;5.20;;;;;;;;;;4974011;28;20054;-79
2021/03/30 13:00:49;;;;;;;9.27;4.38;;;;;;;;;;4971542;28;20115;-79
2021/03/30 13:03:34;;;;;;;8.48;4.63;;;;;;;;;;4972301;28;20057;-79
2021/03/30 13:06:00;;;;;;;16.98;5.07;;;;;;;;;;4969745;28;20047;-79
2021/03/30 13:08:27;;;;;;;9.10;4.55;;;;;;;;;;4977680;28;20129;-79
2021/03/30 13:10:54;;;;;;;11.63;5.28;;;;;;;;;;4990115;28;20100;-79
2021/03/30 13:13:21;;;;;;;7.30;5.32;;;;;;;;;;4990799;28;20202;-79
2021/03/30 13:15:48;;;;;;;13.35;5.60;;;;;;;;;;4973844;28;20120;-79
2021/03/30 13:18:15;;;;;;;9.13;4.72;;;;;;;;;;4991906;28;20058;-79
2021/03/30 13:20:41;;;;;;;10.57;4.93;;;;;;;;;;4974994;28;20549;-79
2021/03/30 13:23:09;;;;;;;10.68;5.78;;;;;;;;;;4991676;28;20072;-79
2021/03/30 13:25:35;;;;;;;17.15;5.97;;;;;;;;;;4991356;28;20519;-81
2021/03/30 13:28:07;;;;;;;16.48;5.57;;;;;;;;;;4983098;28;20046;-81
2021/03/30 13:30:39;;;;;;;10.05;5.10;;;;;;;;;;4974246;28;20104;-80
2021/03/30 13:33:06;;;;;;;8.75;5.50;;;;;;;;;;4974182;28;20065;-80
2021/03/30 13:35:33;;;;;;;18.40;4.72;;;;;;;;;;4972827;28;20476;-80
2021/03/30 13:37:59;;;;;;;12.05;5.10;;;;;;;;;;4974967;28;20570;-80
2021/03/30 13:40:26;;;;;;;11.80;5.90;;;;;;;;;;4973197;28;20050;-80
2021/03/30 13:42:53;;;;;;;10.52;4.68;;;;;;;;;;4990773;28;20495;-80
2021/03/30 13:45:20;;;;;;;13.32;6.15;;;;;;;;;;4991529;28;20109;-80
2021/03/30 13:47:47;;;;;;;13.25;5.03;;;;;;;;;;4991217;28;20829;-80
2021/03/30 13:50:14;;;;;;;9.57;5.25;;;;;;;;;;4991240;28;20108;-80
2021/03/30 13:52:40;;;;;;;10.20;5.80;;;;;;;;;;4973761;28;20054;-81
2021/03/30 13:55:07;;;;;;;10.55;5.65;;;;;;;;;;4973598;28;20069;-80
2021/03/30 13:57:34;;;;;;;21.42;8.38;;;;;;;;;;4973042;28;20532;-80
2021/03/30 14:00:01;;;;;;;20.77;9.90;;;;;;;;;;4991212;28;20047;-81
2021/03/30 14:02:28;;;;;;;17.90;7.15;;;;;;;;;;4991110;28;20054;-80
2021/03/30 14:04:54;;;;;;;27.67;9.95;;;;;;;;;;4990928;28;20082;-80
2021/03/30 14:07:21;;;;;;;13.95;7.68;;;;;;;;;;4990953;28;20483;-81
2021/03/30 14:09:48;;;;;;;23.55;11.88;;;;;;;;;;4991182;28;20141;-80
2021/03/30 14:12:29;;;;;;;10.88;5.90;;;;;;;;;;4979248;28;20508;-81
2021/03/30 14:15:01;;;;;;;11.15;5.43;;;;;;;;;;4970575;28;20133;-81
2021/03/30 14:17:32;;;;;;;10.13;5.45;;;;;;;;;;4970756;28;20173;-81
2021/03/30 14:20:01;;;;;;;10.23;5.25;;;;;;;;;;4971632;28;20094;-80
2021/03/30 14:22:34;;;;;;;11.65;4.65;;;;;;;;;;4971783;28;20125;-80
2021/03/30 14:25:06;;;;;;;12.93;5.75;;;;;;;;;;4971643;28;20047;-80
2021/03/30 14:27:36;;;;;;;12.55;6.20;;;;;;;;;;4973359;28;20055;-80
2021/03/30 14:30:22;;;;;;;16.02;6.60;;;;;;;;;;4970468;28;20046;-80
2021/03/30 14:32:49;;;;;;;15.10;5.93;;;;;;;;;;4971179;28;20058;-81
2021/03/30 14:35:16;;;;;;;21.20;9.38;;;;;;;;;;4971668;28;20436;-80
2021/03/30 14:37:44;;;;;;;22.90;8.60;;;;;;;;;;4971922;28;20138;-81
2021/03/30 14:40:34;;;;;;;14.18;6.38;;;;;;;;;;4969847;28;20086;-81